Pacific - South Coast: Past 24 Hour Conditions

 

Port Hardy Airport

11:00 PM PDT 19 April 2014
This table is a summary of hourly weather conditions for the past 24 hours.
Date / Time
(PDT)
Wind(knots) Conditions Visibility(km) Pressure(kPa) Air tempC) Relative humidity(%) Dew pointC)
19 April 2014
23:00 SSE 4 Partly Cloudy 24 101.5 4 99 4
22:00 calm Partly Cloudy 24 101.4 6 97 5
21:00 SSW 3 Light Rain 19 101.3 7 93 6
20:00 WSW 4 Light Rain 16 101.1 7 90 6
19:00 SW 7 Light Rain 13 101.0 8 88 6
18:00 SSW 6 Light Rain 13 100.8 9 89 7
17:00 SSE 7 Light Rain 13 100.7 9 92 7
16:00 SE 9 Light Rain 16 100.5 9 91 7
15:00 SE 10 Light Rain 19 100.4 9 92 8
14:00 SE 13 gust 18 Light Rain 24 100.2 10 82 7
13:00 ESE 16 gust 23 Cloudy 32 100.2 9 82 6
12:00 ESE 16 gust 22 Cloudy 32 100.1 9 73 5
11:00 ESE 19 gust 25 Cloudy 32 100.1 9 73 4
10:00 ESE 20 gust 29 Mostly Cloudy 32 100.0 9 71 4
9:00 ESE 19 gust 26 Mostly Cloudy 32 100.0 9 72 4
8:00 ESE 21 gust 28 Partly Cloudy 32 100.1 9 73 4
7:00 ESE 21 gust 30 Partly Cloudy 32 100.1 8 75 4
6:00 ESE 24 gust 37 Partly Cloudy 24 100.2 8 75 4
5:00 ESE 16 Mostly Cloudy 24 100.4 9 64 2
4:00 ESE 14 gust 24 Mostly Cloudy 24 100.5 8 76 4
3:00 ESE 19 gust 29 Mostly Cloudy 24 100.5 8 78 5
2:00 ESE 21 gust 27 Mostly Cloudy 24 100.6 8 78 5
1:00 ESE 16 gust 22 Partly Cloudy 24 100.7 8 81 5
0:00 ESE 17 gust 23 Light Rainshower 24 100.9 8 82 5
18 April 2014
23:00 ESE 14 gust 21 Light Rainshower 24 101.0 8 82 5
 
Map of Pacific - South Coast marine weather areas Tsawwassen Ferry Terminal South Nomad - 46036 Sentry Shoal - 46131 South Brooks - 46132 Halibut Bank - 46146 South Moresby - 46147 South Hecate Strait - 46185 West Sea Otter - 46204 La Perouse Bank - 46206 East Dellwood - 46207 Discovery Island Esquimalt Harbour Kelp Reefs Malahat Race Rocks Lightstation Saturna Island Sheringham Point University of Victoria Victoria Gonzales Victoria Int'l Airport Ballenas Islands Campbell River Airport Comox Airport Entrance Island Fanny Island Nanaimo Airport Port Hardy Airport Sisters Islets Estevan Point Sartine Island Solander Island Tofino Airport Grief Point Powell River Airport Sechelt Cape St.James Bella Bella Airport Bella Coola Airport Cathedral Point Herbert Island Point Atkinson Sand Heads Lightstation Vancouver Harbour Vancouver Int'l Airport West Vancouver Port Alberni Howe Sound - Pam Rocks Squamish Airport